sensor_id;sensor_type;location;lat;lon;timestamp;temperature;humidity
12655;DHT22;6392;44.644;11.448;2022-08-30T00:01:22;24.90;99.90
12655;DHT22;6392;44.644;11.448;2022-08-30T00:03:51;24.90;99.90
12655;DHT22;6392;44.644;11.448;2022-08-30T00:06:20;24.90;99.90
12655;DHT22;6392;44.644;11.448;2022-08-30T00:08:48;24.90;99.90
12655;DHT22;6392;44.644;11.448;2022-08-30T00:11:18;24.90;99.90
12655;DHT22;6392;44.644;11.448;2022-08-30T00:13:48;24.90;99.90
12655;DHT22;6392;44.644;11.448;2022-08-30T00:16:16;24.80;99.90
12655;DHT22;6392;44.644;11.448;2022-08-30T00:18:44;24.80;99.90
12655;DHT22;6392;44.644;11.448;2022-08-30T00:21:13;24.80;99.90
12655;DHT22;6392;44.644;11.448;2022-08-30T00:23:40;24.70;99.90
12655;DHT22;6392;44.644;11.448;2022-08-30T00:26:08;24.60;99.90
12655;DHT22;6392;44.644;11.448;2022-08-30T00:28:35;24.50;99.90
12655;DHT22;6392;44.644;11.448;2022-08-30T00:31:03;24.50;99.90
12655;DHT22;6392;44.644;11.448;2022-08-30T00:33:30;24.50;99.90
12655;DHT22;6392;44.644;11.448;2022-08-30T00:35:58;24.40;99.90
12655;DHT22;6392;44.644;11.448;2022-08-30T00:38:26;24.40;99.90
12655;DHT22;6392;44.644;11.448;2022-08-30T00:40:53;24.50;99.90
12655;DHT22;6392;44.644;11.448;2022-08-30T00:43:23;24.40;99.90
12655;DHT22;6392;44.644;11.448;2022-08-30T00:45:53;24.50;99.90
12655;DHT22;6392;44.644;11.448;2022-08-30T00:48:21;24.50;99.90
12655;DHT22;6392;44.644;11.448;2022-08-30T00:50:50;24.40;99.90
12655;DHT22;6392;44.644;11.448;2022-08-30T00:53:22;24.40;99.90
12655;DHT22;6392;44.644;11.448;2022-08-30T00:55:52;24.40;99.90
12655;DHT22;6392;44.644;11.448;2022-08-30T00:58:23;24.30;99.90
12655;DHT22;6392;44.644;11.448;2022-08-30T01:00:53;24.10;99.90
12655;DHT22;6392;44.644;11.448;2022-08-30T01:03:21;24.00;99.90
12655;DHT22;6392;44.644;11.448;2022-08-30T01:05:49;24.00;99.90
12655;DHT22;6392;44.644;11.448;2022-08-30T01:08:17;24.10;99.90
12655;DHT22;6392;44.644;11.448;2022-08-30T01:10:46;24.10;99.90
12655;DHT22;6392;44.644;11.448;2022-08-30T01:13:14;24.10;99.90
12655;DHT22;6392;44.644;11.448;2022-08-30T01:15:43;24.10;99.90
12655;DHT22;6392;44.644;11.448;2022-08-30T01:18:12;24.10;99.90
12655;DHT22;6392;44.644;11.448;2022-08-30T01:20:47;24.10;99.90
12655;DHT22;6392;44.644;11.448;2022-08-30T01:23:19;24.10;99.90
12655;DHT22;6392;44.644;11.448;2022-08-30T01:25:48;24.10;99.90
12655;DHT22;6392;44.644;11.448;2022-08-30T01:28:19;24.10;99.90
12655;DHT22;6392;44.644;11.448;2022-08-30T01:30:47;24.00;99.90
12655;DHT22;6392;44.644;11.448;2022-08-30T01:33:14;23.90;99.90
12655;DHT22;6392;44.644;11.448;2022-08-30T01:35:45;23.90;99.90
12655;DHT22;6392;44.644;11.448;2022-08-30T01:38:13;23.90;99.90
12655;DHT22;6392;44.644;11.448;2022-08-30T01:40:43;23.90;99.90
12655;DHT22;6392;44.644;11.448;2022-08-30T01:43:11;23.90;99.90
12655;DHT22;6392;44.644;11.448;2022-08-30T01:45:38;23.80;99.90
12655;DHT22;6392;44.644;11.448;2022-08-30T01:48:05;23.90;99.90
12655;DHT22;6392;44.644;11.448;2022-08-30T01:50:33;23.90;99.90
12655;DHT22;6392;44.644;11.448;2022-08-30T01:53:00;23.80;99.90
12655;DHT22;6392;44.644;11.448;2022-08-30T01:55:27;23.80;99.90
12655;DHT22;6392;44.644;11.448;2022-08-30T01:57:55;23.70;99.90
12655;DHT22;6392;44.644;11.448;2022-08-30T02:00:23;23.60;99.90
12655;DHT22;6392;44.644;11.448;2022-08-30T02:02:50;23.50;99.90
12655;DHT22;6392;44.644;11.448;2022-08-30T02:05:17;23.40;99.90
12655;DHT22;6392;44.644;11.448;2022-08-30T02:07:44;23.40;99.90
12655;DHT22;6392;44.644;11.448;2022-08-30T02:10:12;23.40;99.90
12655;DHT22;6392;44.644;11.448;2022-08-30T02:12:39;23.30;99.90
12655;DHT22;6392;44.644;11.448;2022-08-30T02:15:09;23.20;99.90
12655;DHT22;6392;44.644;11.448;2022-08-30T02:17:37;23.20;99.90
12655;DHT22;6392;44.644;11.448;2022-08-30T02:20:06;23.20;99.90
12655;DHT22;6392;44.644;11.448;2022-08-30T02:22:34;23.20;99.90
12655;DHT22;6392;44.644;11.448;2022-08-30T02:25:01;23.20;99.90
12655;DHT22;6392;44.644;11.448;2022-08-30T02:27:28;23.20;99.90
12655;DHT22;6392;44.644;11.448;2022-08-30T02:29:55;23.20;99.90
12655;DHT22;6392;44.644;11.448;2022-08-30T02:32:23;23.20;99.90
12655;DHT22;6392;44.644;11.448;2022-08-30T02:34:50;23.20;99.90
12655;DHT22;6392;44.644;11.448;2022-08-30T02:37:19;23.20;99.90
12655;DHT22;6392;44.644;11.448;2022-08-30T02:39:46;23.20;99.90
12655;DHT22;6392;44.644;11.448;2022-08-30T02:42:13;23.20;99.90
12655;DHT22;6392;44.644;11.448;2022-08-30T02:44:40;23.20;99.90
12655;DHT22;6392;44.644;11.448;2022-08-30T02:47:07;23.30;99.90
12655;DHT22;6392;44.644;11.448;2022-08-30T02:49:37;23.30;99.90
12655;DHT22;6392;44.644;11.448;2022-08-30T02:52:04;23.30;99.90
12655;DHT22;6392;44.644;11.448;2022-08-30T02:54:32;23.20;99.90
12655;DHT22;6392;44.644;11.448;2022-08-30T02:56:59;23.00;99.90
12655;DHT22;6392;44.644;11.448;2022-08-30T02:59:29;23.00;99.90
12655;DHT22;6392;44.644;11.448;2022-08-30T03:01:57;22.90;99.90
12655;DHT22;6392;44.644;11.448;2022-08-30T03:04:24;22.80;99.90
12655;DHT22;6392;44.644;11.448;2022-08-30T03:06:52;22.80;99.90
12655;DHT22;6392;44.644;11.448;2022-08-30T03:09:19;22.80;99.90
12655;DHT22;6392;44.644;11.448;2022-08-30T03:11:46;22.80;99.90
12655;DHT22;6392;44.644;11.448;2022-08-30T03:14:13;22.70;99.90
12655;DHT22;6392;44.644;11.448;2022-08-30T03:16:40;22.70;99.90
12655;DHT22;6392;44.644;11.448;2022-08-30T03:19:07;22.70;99.90
12655;DHT22;6392;44.644;11.448;2022-08-30T03:21:36;22.60;99.90
12655;DHT22;6392;44.644;11.448;2022-08-30T03:24:05;22.60;99.90
12655;DHT22;6392;44.644;11.448;2022-08-30T03:26:32;22.60;99.90
12655;DHT22;6392;44.644;11.448;2022-08-30T03:29:00;22.50;99.90
12655;DHT22;6392;44.644;11.448;2022-08-30T03:31:27;22.50;99.90
12655;DHT22;6392;44.644;11.448;2022-08-30T03:33:54;22.50;99.90
12655;DHT22;6392;44.644;11.448;2022-08-30T03:36:21;22.50;99.90
12655;DHT22;6392;44.644;11.448;2022-08-30T03:38:48;22.60;99.90
12655;DHT22;6392;44.644;11.448;2022-08-30T03:41:17;22.60;99.90
12655;DHT22;6392;44.644;11.448;2022-08-30T03:43:44;22.50;99.90
12655;DHT22;6392;44.644;11.448;2022-08-30T03:46:13;22.50;99.90
12655;DHT22;6392;44.644;11.448;2022-08-30T03:48:40;22.50;99.90
12655;DHT22;6392;44.644;11.448;2022-08-30T03:51:08;22.50;99.90
12655;DHT22;6392;44.644;11.448;2022-08-30T03:53:35;22.50;99.90
12655;DHT22;6392;44.644;11.448;2022-08-30T03:56:02;22.50;99.90
12655;DHT22;6392;44.644;11.448;2022-08-30T03:58:31;22.50;99.90
12655;DHT22;6392;44.644;11.448;2022-08-30T04:00:59;22.50;99.90
12655;DHT22;6392;44.644;11.448;2022-08-30T04:03:26;22.40;99.90
12655;DHT22;6392;44.644;11.448;2022-08-30T04:05:53;22.40;99.90
12655;DHT22;6392;44.644;11.448;2022-08-30T04:08:21;22.30;99.90
12655;DHT22;6392;44.644;11.448;2022-08-30T04:10:48;22.20;99.90
12655;DHT22;6392;44.644;11.448;2022-08-30T04:13:16;22.20;99.90
12655;DHT22;6392;44.644;11.448;2022-08-30T04:15:44;22.30;99.90
12655;DHT22;6392;44.644;11.448;2022-08-30T04:18:11;22.30;99.90
12655;DHT22;6392;44.644;11.448;2022-08-30T04:20:38;22.30;99.90
12655;DHT22;6392;44.644;11.448;2022-08-30T04:23:06;22.30;99.90
12655;DHT22;6392;44.644;11.448;2022-08-30T04:25:33;22.30;99.90
12655;DHT22;6392;44.644;11.448;2022-08-30T04:28:00;22.20;99.90
12655;DHT22;6392;44.644;11.448;2022-08-30T04:30:27;22.20;99.90
12655;DHT22;6392;44.644;11.448;2022-08-30T04:32:56;22.20;99.90
12655;DHT22;6392;44.644;11.448;2022-08-30T04:35:24;22.20;99.90
12655;DHT22;6392;44.644;11.448;2022-08-30T04:37:51;22.20;99.90
12655;DHT22;6392;44.644;11.448;2022-08-30T04:40:18;22.20;99.90
12655;DHT22;6392;44.644;11.448;2022-08-30T04:42:45;22.20;99.90
12655;DHT22;6392;44.644;11.448;2022-08-30T04:45:14;22.10;99.90
12655;DHT22;6392;44.644;11.448;2022-08-30T04:47:42;22.10;99.90
12655;DHT22;6392;44.644;11.448;2022-08-30T04:50:14;22.20;99.90
12655;DHT22;6392;44.644;11.448;2022-08-30T04:52:41;22.20;99.90
12655;DHT22;6392;44.644;11.448;2022-08-30T04:55:09;22.20;99.90
12655;DHT22;6392;44.644;11.448;2022-08-30T04:57:37;22.20;99.90
12655;DHT22;6392;44.644;11.448;2022-08-30T05:00:08;22.30;99.90
12655;DHT22;6392;44.644;11.448;2022-08-30T05:02:35;22.30;99.90
12655;DHT22;6392;44.644;11.448;2022-08-30T05:05:03;22.20;99.90
12655;DHT22;6392;44.644;11.448;2022-08-30T05:07:49;22.30;99.90
12655;DHT22;6392;44.644;11.448;2022-08-30T05:10:16;22.40;99.90
12655;DHT22;6392;44.644;11.448;2022-08-30T05:12:43;22.50;99.90
12655;DHT22;6392;44.644;11.448;2022-08-30T05:15:11;22.50;99.90
12655;DHT22;6392;44.644;11.448;2022-08-30T05:17:39;22.50;99.90
12655;DHT22;6392;44.644;11.448;2022-08-30T05:20:08;22.50;99.90
12655;DHT22;6392;44.644;11.448;2022-08-30T05:22:37;22.40;99.90
12655;DHT22;6392;44.644;11.448;2022-08-30T05:25:07;22.40;99.90
12655;DHT22;6392;44.644;11.448;2022-08-30T05:27:34;22.40;99.90
12655;DHT22;6392;44.644;11.448;2022-08-30T05:30:01;22.40;99.90
12655;DHT22;6392;44.644;11.448;2022-08-30T05:32:28;22.50;99.90
12655;DHT22;6392;44.644;11.448;2022-08-30T05:34:55;22.50;99.90
12655;DHT22;6392;44.644;11.448;2022-08-30T05:37:22;22.50;99.90
12655;DHT22;6392;44.644;11.448;2022-08-30T05:39:49;22.50;99.90
12655;DHT22;6392;44.644;11.448;2022-08-30T05:42:17;22.60;99.90
12655;DHT22;6392;44.644;11.448;2022-08-30T05:44:44;22.60;99.90
12655;DHT22;6392;44.644;11.448;2022-08-30T05:47:12;22.70;99.90
12655;DHT22;6392;44.644;11.448;2022-08-30T05:49:39;22.80;99.90
12655;DHT22;6392;44.644;11.448;2022-08-30T05:52:06;22.80;99.90
12655;DHT22;6392;44.644;11.448;2022-08-30T05:54:33;22.80;99.90
12655;DHT22;6392;44.644;11.448;2022-08-30T05:57:00;22.80;99.90
12655;DHT22;6392;44.644;11.448;2022-08-30T05:59:29;22.90;99.90
12655;DHT22;6392;44.644;11.448;2022-08-30T06:01:57;23.00;99.90
12655;DHT22;6392;44.644;11.448;2022-08-30T06:04:24;23.00;99.90
12655;DHT22;6392;44.644;11.448;2022-08-30T06:06:51;23.10;99.90
12655;DHT22;6392;44.644;11.448;2022-08-30T06:09:18;23.20;99.90
12655;DHT22;6392;44.644;11.448;2022-08-30T06:11:46;23.20;99.90
12655;DHT22;6392;44.644;11.448;2022-08-30T06:14:13;23.20;99.90
12655;DHT22;6392;44.644;11.448;2022-08-30T06:16:41;23.30;99.90
12655;DHT22;6392;44.644;11.448;2022-08-30T06:19:10;23.40;99.90
12655;DHT22;6392;44.644;11.448;2022-08-30T06:21:38;23.40;99.90
12655;DHT22;6392;44.644;11.448;2022-08-30T06:24:08;23.50;99.90
12655;DHT22;6392;44.644;11.448;2022-08-30T06:26:37;23.50;99.90
12655;DHT22;6392;44.644;11.448;2022-08-30T06:29:05;23.50;99.90
12655;DHT22;6392;44.644;11.448;2022-08-30T06:31:33;23.40;99.90
12655;DHT22;6392;44.644;11.448;2022-08-30T06:34:01;23.50;99.90
12655;DHT22;6392;44.644;11.448;2022-08-30T06:36:29;23.50;99.90
12655;DHT22;6392;44.644;11.448;2022-08-30T06:38:56;23.60;99.90
12655;DHT22;6392;44.644;11.448;2022-08-30T06:41:28;23.60;99.90
12655;DHT22;6392;44.644;11.448;2022-08-30T06:43:58;23.60;99.90
12655;DHT22;6392;44.644;11.448;2022-08-30T06:46:28;23.60;99.90
12655;DHT22;6392;44.644;11.448;2022-08-30T06:48:57;23.70;99.90
12655;DHT22;6392;44.644;11.448;2022-08-30T06:51:27;23.70;99.90
12655;DHT22;6392;44.644;11.448;2022-08-30T06:53:56;23.80;99.90
12655;DHT22;6392;44.644;11.448;2022-08-30T06:56:24;23.80;99.90
12655;DHT22;6392;44.644;11.448;2022-08-30T06:58:51;23.90;99.90
12655;DHT22;6392;44.644;11.448;2022-08-30T07:01:20;23.90;99.90
12655;DHT22;6392;44.644;11.448;2022-08-30T07:03:48;23.90;99.90
12655;DHT22;6392;44.644;11.448;2022-08-30T07:06:16;23.90;99.90
12655;DHT22;6392;44.644;11.448;2022-08-30T07:08:45;23.90;99.90
12655;DHT22;6392;44.644;11.448;2022-08-30T07:11:14;23.90;99.90
12655;DHT22;6392;44.644;11.448;2022-08-30T07:13:41;23.90;99.90
12655;DHT22;6392;44.644;11.448;2022-08-30T07:16:11;24.00;99.90
12655;DHT22;6392;44.644;11.448;2022-08-30T07:18:38;24.10;99.90
12655;DHT22;6392;44.644;11.448;2022-08-30T07:21:22;24.10;99.90
12655;DHT22;6392;44.644;11.448;2022-08-30T07:23:52;24.10;99.90
12655;DHT22;6392;44.644;11.448;2022-08-30T07:26:22;24.20;99.90
12655;DHT22;6392;44.644;11.448;2022-08-30T07:28:50;24.30;99.90
12655;DHT22;6392;44.644;11.448;2022-08-30T07:31:17;24.30;99.90
12655;DHT22;6392;44.644;11.448;2022-08-30T07:33:45;24.30;99.90
12655;DHT22;6392;44.644;11.448;2022-08-30T07:36:13;24.40;99.90
12655;DHT22;6392;44.644;11.448;2022-08-30T07:38:42;24.40;99.90
12655;DHT22;6392;44.644;11.448;2022-08-30T07:41:15;24.50;99.90
12655;DHT22;6392;44.644;11.448;2022-08-30T07:43:43;24.50;99.90
12655;DHT22;6392;44.644;11.448;2022-08-30T07:46:11;24.60;99.90
12655;DHT22;6392;44.644;11.448;2022-08-30T07:48:38;24.60;99.90
12655;DHT22;6392;44.644;11.448;2022-08-30T07:51:09;24.60;99.90
12655;DHT22;6392;44.644;11.448;2022-08-30T07:53:37;24.70;99.90
12655;DHT22;6392;44.644;11.448;2022-08-30T07:56:04;24.70;99.90
12655;DHT22;6392;44.644;11.448;2022-08-30T07:58:33;24.70;99.90
12655;DHT22;6392;44.644;11.448;2022-08-30T08:01:02;24.80;99.90
12655;DHT22;6392;44.644;11.448;2022-08-30T08:03:30;24.80;99.90
12655;DHT22;6392;44.644;11.448;2022-08-30T08:06:00;24.90;99.90
12655;DHT22;6392;44.644;11.448;2022-08-30T08:08:28;24.90;99.90
12655;DHT22;6392;44.644;11.448;2022-08-30T08:10:55;25.10;99.90
12655;DHT22;6392;44.644;11.448;2022-08-30T08:13:22;25.10;99.90
12655;DHT22;6392;44.644;11.448;2022-08-30T08:15:51;25.20;99.90
12655;DHT22;6392;44.644;11.448;2022-08-30T08:18:18;25.20;99.90
12655;DHT22;6392;44.644;11.448;2022-08-30T08:20:45;25.30;99.90
12655;DHT22;6392;44.644;11.448;2022-08-30T08:23:12;25.40;99.90
12655;DHT22;6392;44.644;11.448;2022-08-30T08:25:39;25.40;99.90
12655;DHT22;6392;44.644;11.448;2022-08-30T08:28:07;25.40;99.90
12655;DHT22;6392;44.644;11.448;2022-08-30T08:30:35;25.50;99.90
12655;DHT22;6392;44.644;11.448;2022-08-30T08:33:04;25.50;99.90
12655;DHT22;6392;44.644;11.448;2022-08-30T08:35:32;25.50;99.90
12655;DHT22;6392;44.644;11.448;2022-08-30T08:37:59;25.50;99.90
12655;DHT22;6392;44.644;11.448;2022-08-30T08:40:27;25.50;99.90
12655;DHT22;6392;44.644;11.448;2022-08-30T08:43:02;25.50;99.90
12655;DHT22;6392;44.644;11.448;2022-08-30T08:45:46;25.50;99.90
12655;DHT22;6392;44.644;11.448;2022-08-30T08:48:33;25.50;99.90
12655;DHT22;6392;44.644;11.448;2022-08-30T08:51:01;25.60;99.90
12655;DHT22;6392;44.644;11.448;2022-08-30T08:53:44;25.60;99.90
12655;DHT22;6392;44.644;11.448;2022-08-30T08:56:17;25.70;99.90
12655;DHT22;6392;44.644;11.448;2022-08-30T08:58:46;25.80;99.90
12655;DHT22;6392;44.644;11.448;2022-08-30T09:01:16;25.80;99.90
12655;DHT22;6392;44.644;11.448;2022-08-30T09:03:45;25.80;99.90
12655;DHT22;6392;44.644;11.448;2022-08-30T09:06:31;25.90;99.90
12655;DHT22;6392;44.644;11.448;2022-08-30T09:08:59;26.00;99.90
12655;DHT22;6392;44.644;11.448;2022-08-30T09:11:30;26.00;99.90
12655;DHT22;6392;44.644;11.448;2022-08-30T09:13:58;26.00;99.90
12655;DHT22;6392;44.644;11.448;2022-08-30T09:16:45;26.00;99.90
12655;DHT22;6392;44.644;11.448;2022-08-30T09:19:29;26.00;99.90
12655;DHT22;6392;44.644;11.448;2022-08-30T09:21:57;26.10;99.90
12655;DHT22;6392;44.644;11.448;2022-08-30T09:24:25;26.10;99.90
12655;DHT22;6392;44.644;11.448;2022-08-30T09:26:52;26.10;99.90
12655;DHT22;6392;44.644;11.448;2022-08-30T09:29:19;26.00;99.90
12655;DHT22;6392;44.644;11.448;2022-08-30T09:31:49;26.00;99.90
12655;DHT22;6392;44.644;11.448;2022-08-30T09:34:21;26.10;99.90
12655;DHT22;6392;44.644;11.448;2022-08-30T09:36:50;26.10;99.90
12655;DHT22;6392;44.644;11.448;2022-08-30T09:39:19;26.10;99.90
12655;DHT22;6392;44.644;11.448;2022-08-30T09:41:47;26.20;99.90
12655;DHT22;6392;44.644;11.448;2022-08-30T09:44:17;26.20;99.90
12655;DHT22;6392;44.644;11.448;2022-08-30T09:46:48;26.20;99.90
12655;DHT22;6392;44.644;11.448;2022-08-30T09:49:32;26.10;99.90
12655;DHT22;6392;44.644;11.448;2022-08-30T09:52:15;26.20;99.90
12655;DHT22;6392;44.644;11.448;2022-08-30T09:54:50;26.30;99.90
12655;DHT22;6392;44.644;11.448;2022-08-30T09:57:25;26.30;99.90
12655;DHT22;6392;44.644;11.448;2022-08-30T10:00:02;26.30;99.90
12655;DHT22;6392;44.644;11.448;2022-08-30T10:02:42;26.20;99.90
12655;DHT22;6392;44.644;11.448;2022-08-30T10:05:20;26.20;99.90
12655;DHT22;6392;44.644;11.448;2022-08-30T10:07:56;26.20;99.90
12655;DHT22;6392;44.644;11.448;2022-08-30T10:10:32;26.20;99.90
12655;DHT22;6392;44.644;11.448;2022-08-30T10:13:11;26.20;99.90
12655;DHT22;6392;44.644;11.448;2022-08-30T10:15:48;26.30;99.90
12655;DHT22;6392;44.644;11.448;2022-08-30T10:18:21;26.30;99.90
12655;DHT22;6392;44.644;11.448;2022-08-30T10:21:00;26.30;99.90
12655;DHT22;6392;44.644;11.448;2022-08-30T10:23:32;26.30;99.90
12655;DHT22;6392;44.644;11.448;2022-08-30T10:26:08;26.40;99.90
12655;DHT22;6392;44.644;11.448;2022-08-30T10:28:39;26.40;99.90
12655;DHT22;6392;44.644;11.448;2022-08-30T10:31:11;26.40;99.90
12655;DHT22;6392;44.644;11.448;2022-08-30T10:33:44;26.50;99.90
12655;DHT22;6392;44.644;11.448;2022-08-30T10:36:14;26.50;99.90
12655;DHT22;6392;44.644;11.448;2022-08-30T10:38:46;26.50;99.90
12655;DHT22;6392;44.644;11.448;2022-08-30T10:41:21;26.50;99.90
12655;DHT22;6392;44.644;11.448;2022-08-30T10:43:57;26.40;99.90
12655;DHT22;6392;44.644;11.448;2022-08-30T10:46:29;26.50;99.90
12655;DHT22;6392;44.644;11.448;2022-08-30T10:49:02;26.60;99.90
12655;DHT22;6392;44.644;11.448;2022-08-30T10:51:37;26.80;99.90
12655;DHT22;6392;44.644;11.448;2022-08-30T10:54:10;26.80;99.90
12655;DHT22;6392;44.644;11.448;2022-08-30T10:56:40;26.90;99.90
12655;DHT22;6392;44.644;11.448;2022-08-30T10:59:08;26.80;99.90
12655;DHT22;6392;44.644;11.448;2022-08-30T11:01:49;26.80;99.90
12655;DHT22;6392;44.644;11.448;2022-08-30T11:07:21;26.80;99.90
12655;DHT22;6392;44.644;11.448;2022-08-30T11:10:06;26.70;99.90
12655;DHT22;6392;44.644;11.448;2022-08-30T11:12:38;27.00;99.90
12655;DHT22;6392;44.644;11.448;2022-08-30T11:15:15;27.00;99.90
12655;DHT22;6392;44.644;11.448;2022-08-30T11:17:51;27.00;99.90
12655;DHT22;6392;44.644;11.448;2022-08-30T11:20:31;27.10;99.90
12655;DHT22;6392;44.644;11.448;2022-08-30T11:23:25;26.90;99.90
12655;DHT22;6392;44.644;11.448;2022-08-30T11:25:54;26.80;99.90
12655;DHT22;6392;44.644;11.448;2022-08-30T11:31:39;26.70;99.90
12655;DHT22;6392;44.644;11.448;2022-08-30T11:34:06;26.80;99.90
12655;DHT22;6392;44.644;11.448;2022-08-30T11:37:04;26.80;99.90
12655;DHT22;6392;44.644;11.448;2022-08-30T11:39:55;26.80;99.90
12655;DHT22;6392;44.644;11.448;2022-08-30T11:42:32;26.80;99.90
12655;DHT22;6392;44.644;11.448;2022-08-30T11:48:05;26.80;99.90
12655;DHT22;6392;44.644;11.448;2022-08-30T11:50:39;26.70;99.90
12655;DHT22;6392;44.644;11.448;2022-08-30T11:53:13;26.80;99.90
12655;DHT22;6392;44.644;11.448;2022-08-30T11:55:55;26.80;99.90
12655;DHT22;6392;44.644;11.448;2022-08-30T11:58:45;26.80;99.90
12655;DHT22;6392;44.644;11.448;2022-08-30T12:01:30;26.90;99.90
12655;DHT22;6392;44.644;11.448;2022-08-30T12:04:03;26.90;99.90
12655;DHT22;6392;44.644;11.448;2022-08-30T12:06:52;26.90;99.90
12655;DHT22;6392;44.644;11.448;2022-08-30T12:12:55;26.90;99.90
12655;DHT22;6392;44.644;11.448;2022-08-30T12:18:18;26.90;99.90
12655;DHT22;6392;44.644;11.448;2022-08-30T12:21:00;27.00;99.90
12655;DHT22;6392;44.644;11.448;2022-08-30T12:23:36;27.00;99.90
12655;DHT22;6392;44.644;11.448;2022-08-30T12:26:14;27.00;99.90
12655;DHT22;6392;44.644;11.448;2022-08-30T12:28:43;27.00;99.90
12655;DHT22;6392;44.644;11.448;2022-08-30T12:31:16;27.10;99.90
12655;DHT22;6392;44.644;11.448;2022-08-30T12:33:46;27.00;99.90
12655;DHT22;6392;44.644;11.448;2022-08-30T12:36:28;27.00;99.90
12655;DHT22;6392;44.644;11.448;2022-08-30T12:39:09;27.00;99.90
12655;DHT22;6392;44.644;11.448;2022-08-30T12:41:37;27.10;99.90
12655;DHT22;6392;44.644;11.448;2022-08-30T12:44:07;27.00;99.90
12655;DHT22;6392;44.644;11.448;2022-08-30T12:46:36;27.10;99.90
12655;DHT22;6392;44.644;11.448;2022-08-30T12:49:03;27.10;99.90
12655;DHT22;6392;44.644;11.448;2022-08-30T12:51:38;27.10;99.90
12655;DHT22;6392;44.644;11.448;2022-08-30T12:54:11;27.10;99.90
12655;DHT22;6392;44.644;11.448;2022-08-30T12:56:51;27.10;99.90
12655;DHT22;6392;44.644;11.448;2022-08-30T12:59:42;27.10;99.90
12655;DHT22;6392;44.644;11.448;2022-08-30T13:02:12;27.00;99.90
12655;DHT22;6392;44.644;11.448;2022-08-30T13:04:40;27.00;99.90
12655;DHT22;6392;44.644;11.448;2022-08-30T13:07:07;27.10;99.90
12655;DHT22;6392;44.644;11.448;2022-08-30T13:09:39;27.10;99.90
12655;DHT22;6392;44.644;11.448;2022-08-30T13:12:09;27.20;99.90
12655;DHT22;6392;44.644;11.448;2022-08-30T13:14:38;27.30;99.90
12655;DHT22;6392;44.644;11.448;2022-08-30T13:17:20;27.30;99.90
12655;DHT22;6392;44.644;11.448;2022-08-30T13:20:03;27.40;99.90
12655;DHT22;6392;44.644;11.448;2022-08-30T13:22:32;27.40;99.90
12655;DHT22;6392;44.644;11.448;2022-08-30T13:25:00;27.40;99.90
12655;DHT22;6392;44.644;11.448;2022-08-30T13:27:28;27.40;99.90
12655;DHT22;6392;44.644;11.448;2022-08-30T13:29:56;27.30;99.90
12655;DHT22;6392;44.644;11.448;2022-08-30T13:32:25;27.40;99.90
12655;DHT22;6392;44.644;11.448;2022-08-30T13:34:52;27.40;99.90
12655;DHT22;6392;44.644;11.448;2022-08-30T13:37:22;27.40;99.90
12655;DHT22;6392;44.644;11.448;2022-08-30T13:39:49;27.50;99.90
12655;DHT22;6392;44.644;11.448;2022-08-30T13:42:16;27.50;99.90
12655;DHT22;6392;44.644;11.448;2022-08-30T13:44:44;27.60;99.90
12655;DHT22;6392;44.644;11.448;2022-08-30T13:47:12;27.60;99.90
12655;DHT22;6392;44.644;11.448;2022-08-30T13:49:41;27.50;99.90
12655;DHT22;6392;44.644;11.448;2022-08-30T13:52:10;27.50;99.90
12655;DHT22;6392;44.644;11.448;2022-08-30T13:54:39;27.70;99.90
12655;DHT22;6392;44.644;11.448;2022-08-30T13:57:06;27.80;99.90
12655;DHT22;6392;44.644;11.448;2022-08-30T13:59:33;27.80;99.90
12655;DHT22;6392;44.644;11.448;2022-08-30T14:02:01;28.00;99.90
12655;DHT22;6392;44.644;11.448;2022-08-30T14:04:28;28.00;99.90
12655;DHT22;6392;44.644;11.448;2022-08-30T14:06:57;27.90;99.90
12655;DHT22;6392;44.644;11.448;2022-08-30T14:09:24;27.80;99.90
12655;DHT22;6392;44.644;11.448;2022-08-30T14:11:51;27.80;99.90
12655;DHT22;6392;44.644;11.448;2022-08-30T14:14:18;27.70;99.90
12655;DHT22;6392;44.644;11.448;2022-08-30T14:16:45;27.60;99.90
12655;DHT22;6392;44.644;11.448;2022-08-30T14:19:14;27.70;99.90
12655;DHT22;6392;44.644;11.448;2022-08-30T14:21:42;27.80;99.90
12655;DHT22;6392;44.644;11.448;2022-08-30T14:24:12;27.90;99.90
12655;DHT22;6392;44.644;11.448;2022-08-30T14:26:42;27.90;99.90
12655;DHT22;6392;44.644;11.448;2022-08-30T14:29:11;27.90;99.90
12655;DHT22;6392;44.644;11.448;2022-08-30T14:31:40;27.80;99.90
12655;DHT22;6392;44.644;11.448;2022-08-30T14:34:09;27.60;99.90
12655;DHT22;6392;44.644;11.448;2022-08-30T14:36:38;27.50;99.90
12655;DHT22;6392;44.644;11.448;2022-08-30T14:39:08;27.50;99.90
12655;DHT22;6392;44.644;11.448;2022-08-30T14:41:41;27.60;99.90
12655;DHT22;6392;44.644;11.448;2022-08-30T14:44:08;27.60;99.90
12655;DHT22;6392;44.644;11.448;2022-08-30T14:46:36;27.70;99.90
12655;DHT22;6392;44.644;11.448;2022-08-30T14:49:04;27.80;99.90
12655;DHT22;6392;44.644;11.448;2022-08-30T14:51:31;27.90;99.90
12655;DHT22;6392;44.644;11.448;2022-08-30T14:53:58;27.90;99.90
12655;DHT22;6392;44.644;11.448;2022-08-30T14:56:27;28.00;99.90
12655;DHT22;6392;44.644;11.448;2022-08-30T14:58:56;28.00;99.90
12655;DHT22;6392;44.644;11.448;2022-08-30T15:01:26;28.00;99.90
12655;DHT22;6392;44.644;11.448;2022-08-30T15:03:54;28.00;99.90
12655;DHT22;6392;44.644;11.448;2022-08-30T15:06:21;28.00;99.90
12655;DHT22;6392;44.644;11.448;2022-08-30T15:08:49;28.00;99.90
12655;DHT22;6392;44.644;11.448;2022-08-30T15:11:18;28.00;99.90
12655;DHT22;6392;44.644;11.448;2022-08-30T15:13:45;28.10;99.90
12655;DHT22;6392;44.644;11.448;2022-08-30T15:16:17;28.10;99.90
12655;DHT22;6392;44.644;11.448;2022-08-30T15:18:45;28.20;99.90
12655;DHT22;6392;44.644;11.448;2022-08-30T15:21:12;28.30;99.90
12655;DHT22;6392;44.644;11.448;2022-08-30T15:23:40;28.30;99.90
12655;DHT22;6392;44.644;11.448;2022-08-30T15:26:09;28.40;99.90
12655;DHT22;6392;44.644;11.448;2022-08-30T15:28:36;28.40;99.90
12655;DHT22;6392;44.644;11.448;2022-08-30T15:31:03;28.30;99.90
12655;DHT22;6392;44.644;11.448;2022-08-30T15:33:32;28.30;99.90
12655;DHT22;6392;44.644;11.448;2022-08-30T15:35:59;28.20;99.90
12655;DHT22;6392;44.644;11.448;2022-08-30T15:38:27;28.20;99.90
12655;DHT22;6392;44.644;11.448;2022-08-30T15:40:55;28.20;99.90
12655;DHT22;6392;44.644;11.448;2022-08-30T15:43:24;28.20;99.90
12655;DHT22;6392;44.644;11.448;2022-08-30T15:45:53;28.30;99.90
12655;DHT22;6392;44.644;11.448;2022-08-30T15:48:20;28.70;99.90
12655;DHT22;6392;44.644;11.448;2022-08-30T15:50:55;27.90;99.90
12655;DHT22;6392;44.644;11.448;2022-08-30T15:53:23;27.30;99.90
12655;DHT22;6392;44.644;11.448;2022-08-30T15:55:50;26.90;99.90
12655;DHT22;6392;44.644;11.448;2022-08-30T15:58:17;26.70;99.90
12655;DHT22;6392;44.644;11.448;2022-08-30T16:00:44;26.50;99.90
12655;DHT22;6392;44.644;11.448;2022-08-30T16:03:11;26.30;99.90